sensor_id;sensor_type;location;lat;lon;timestamp;temperature;humidity
21121;DHT22;12519;43.318;21.898;2023-02-01T00:02:44;4.8;98.0
21121;DHT22;12519;43.318;21.898;2023-02-01T00:07:21;4.8;98.0
21121;DHT22;12519;43.318;21.898;2023-02-01T00:11:58;5.0;98.0
21121;DHT22;12519;43.318;21.898;2023-02-01T00:16:35;5.0;98.0
21121;DHT22;12519;43.318;21.898;2023-02-01T00:21:13;5.2;98.0
21121;DHT22;12519;43.318;21.898;2023-02-01T00:25:54;5.2;98.0
21121;DHT22;12519;43.318;21.898;2023-02-01T00:30:30;5.3;97.0
21121;DHT22;12519;43.318;21.898;2023-02-01T00:35:08;5.3;97.0
21121;DHT22;12519;43.318;21.898;2023-02-01T00:39:45;5.4;96.0
21121;DHT22;12519;43.318;21.898;2023-02-01T00:44:21;5.4;96.0
21121;DHT22;12519;43.318;21.898;2023-02-01T00:48:58;5.4;96.0
21121;DHT22;12519;43.318;21.898;2023-02-01T00:53:35;5.3;97.0
21121;DHT22;12519;43.318;21.898;2023-02-01T00:58:13;5.3;97.0
21121;DHT22;12519;43.318;21.898;2023-02-01T01:02:50;5.2;97.0
21121;DHT22;12519;43.318;21.898;2023-02-01T01:07:27;5.2;97.0
21121;DHT22;12519;43.318;21.898;2023-02-01T01:12:04;5.1;98.0
21121;DHT22;12519;43.318;21.898;2023-02-01T01:16:41;5.1;98.0
21121;DHT22;12519;43.318;21.898;2023-02-01T01:21:18;4.9;99.0
21121;DHT22;12519;43.318;21.898;2023-02-01T01:25:56;4.9;99.0
21121;DHT22;12519;43.318;21.898;2023-02-01T01:30:33;5.1;99.0
21121;DHT22;12519;43.318;21.898;2023-02-01T01:35:11;5.1;99.0
21121;DHT22;12519;43.318;21.898;2023-02-01T01:39:48;5.2;99.0
21121;DHT22;12519;43.318;21.898;2023-02-01T01:45:31;5.2;99.0
21121;DHT22;12519;43.318;21.898;2023-02-01T01:50:15;5.2;99.0
21121;DHT22;12519;43.318;21.898;2023-02-01T01:55:05;5.2;99.0
21121;DHT22;12519;43.318;21.898;2023-02-01T01:59:47;5.3;99.0
21121;DHT22;12519;43.318;21.898;2023-02-01T02:04:42;5.3;99.0
21121;DHT22;12519;43.318;21.898;2023-02-01T02:09:21;5.3;99.0
21121;DHT22;12519;43.318;21.898;2023-02-01T02:13:57;5.4;98.0
21121;DHT22;12519;43.318;21.898;2023-02-01T02:18:44;5.4;98.0
21121;DHT22;12519;43.318;21.898;2023-02-01T02:24:52;5.5;98.0
21121;DHT22;12519;43.318;21.898;2023-02-01T02:31:00;5.4;98.0
21121;DHT22;12519;43.318;21.898;2023-02-01T02:39:02;5.4;98.0
21121;DHT22;12519;43.318;21.898;2023-02-01T02:44:26;5.4;98.0
21121;DHT22;12519;43.318;21.898;2023-02-01T02:49:36;5.2;98.0
21121;DHT22;12519;43.318;21.898;2023-02-01T02:54:43;5.2;98.0
21121;DHT22;12519;43.318;21.898;2023-02-01T02:59:34;5.1;98.0
21121;DHT22;12519;43.318;21.898;2023-02-01T03:04:20;5.1;98.0
21121;DHT22;12519;43.318;21.898;2023-02-01T03:08:58;5.1;98.0
21121;DHT22;12519;43.318;21.898;2023-02-01T03:13:56;4.9;98.0
21121;DHT22;12519;43.318;21.898;2023-02-01T03:18:45;4.9;98.0
21121;DHT22;12519;43.318;21.898;2023-02-01T03:23:39;4.8;99.0
21121;DHT22;12519;43.318;21.898;2023-02-01T03:28:25;4.8;99.0
21121;DHT22;12519;43.318;21.898;2023-02-01T03:33:17;4.8;98.0
21121;DHT22;12519;43.318;21.898;2023-02-01T03:38:08;4.8;98.0
21121;DHT22;12519;43.318;21.898;2023-02-01T03:43:04;4.9;98.0
21121;DHT22;12519;43.318;21.898;2023-02-01T03:47:58;4.9;98.0
21121;DHT22;12519;43.318;21.898;2023-02-01T03:52:47;5.0;98.0
21121;DHT22;12519;43.318;21.898;2023-02-01T03:57:46;5.0;98.0
21121;DHT22;12519;43.318;21.898;2023-02-01T04:02:47;5.1;98.0
21121;DHT22;12519;43.318;21.898;2023-02-01T04:07:26;5.1;98.0
21121;DHT22;12519;43.318;21.898;2023-02-01T04:12:03;5.2;98.0
21121;DHT22;12519;43.318;21.898;2023-02-01T04:16:41;5.2;98.0
21121;DHT22;12519;43.318;21.898;2023-02-01T04:21:18;5.2;98.0
21121;DHT22;12519;43.318;21.898;2023-02-01T04:25:59;5.2;98.0
21121;DHT22;12519;43.318;21.898;2023-02-01T04:30:37;7.2;95.0
21121;DHT22;12519;43.318;21.898;2023-02-01T04:35:14;7.2;95.0
21121;DHT22;12519;43.318;21.898;2023-02-01T04:39:50;9.1;92.0
21121;DHT22;12519;43.318;21.898;2023-02-01T04:44:26;9.1;92.0
21121;DHT22;12519;43.318;21.898;2023-02-01T04:49:03;9.1;92.0
21121;DHT22;12519;43.318;21.898;2023-02-01T04:53:39;8.0;93.0
21121;DHT22;12519;43.318;21.898;2023-02-01T04:58:15;8.0;93.0
21121;DHT22;12519;43.318;21.898;2023-02-01T05:02:52;6.9;94.0
21121;DHT22;12519;43.318;21.898;2023-02-01T05:07:28;6.9;94.0
21121;DHT22;12519;43.318;21.898;2023-02-01T05:12:05;6.3;96.0
21121;DHT22;12519;43.318;21.898;2023-02-01T05:16:45;6.3;96.0
21121;DHT22;12519;43.318;21.898;2023-02-01T05:21:22;5.7;98.0
21121;DHT22;12519;43.318;21.898;2023-02-01T05:26:01;5.7;98.0
21121;DHT22;12519;43.318;21.898;2023-02-01T05:30:38;5.6;98.0
21121;DHT22;12519;43.318;21.898;2023-02-01T05:35:14;5.6;98.0
21121;DHT22;12519;43.318;21.898;2023-02-01T05:39:51;5.6;99.0
21121;DHT22;12519;43.318;21.898;2023-02-01T05:44:28;5.6;99.0
21121;DHT22;12519;43.318;21.898;2023-02-01T05:49:05;5.6;99.0
21121;DHT22;12519;43.318;21.898;2023-02-01T05:53:41;5.4;99.0
21121;DHT22;12519;43.318;21.898;2023-02-01T05:58:17;5.4;99.0
21121;DHT22;12519;43.318;21.898;2023-02-01T06:02:53;5.2;99.0
21121;DHT22;12519;43.318;21.898;2023-02-01T06:07:30;5.2;99.0
21121;DHT22;12519;43.318;21.898;2023-02-01T06:12:07;5.2;99.0
21121;DHT22;12519;43.318;21.898;2023-02-01T06:16:43;5.2;99.0
21121;DHT22;12519;43.318;21.898;2023-02-01T06:21:20;5.3;100.0
21121;DHT22;12519;43.318;21.898;2023-02-01T06:25:59;5.3;100.0
21121;DHT22;12519;43.318;21.898;2023-02-01T06:30:42;5.1;100.0
21121;DHT22;12519;43.318;21.898;2023-02-01T06:35:19;5.1;100.0
21121;DHT22;12519;43.318;21.898;2023-02-01T06:39:56;5.1;100.0
21121;DHT22;12519;43.318;21.898;2023-02-01T06:44:33;4.9;100.0
21121;DHT22;12519;43.318;21.898;2023-02-01T06:49:09;4.9;100.0
21121;DHT22;12519;43.318;21.898;2023-02-01T06:53:46;5.1;100.0
21121;DHT22;12519;43.318;21.898;2023-02-01T06:58:23;5.1;100.0
21121;DHT22;12519;43.318;21.898;2023-02-01T07:03:05;5.2;100.0
21121;DHT22;12519;43.318;21.898;2023-02-01T07:07:41;5.2;100.0
21121;DHT22;12519;43.318;21.898;2023-02-01T07:12:19;5.2;100.0
21121;DHT22;12519;43.318;21.898;2023-02-01T07:16:55;5.2;100.0
21121;DHT22;12519;43.318;21.898;2023-02-01T07:21:31;5.3;100.0
21121;DHT22;12519;43.318;21.898;2023-02-01T07:26:09;5.3;100.0
21121;DHT22;12519;43.318;21.898;2023-02-01T07:30:50;5.4;100.0
21121;DHT22;12519;43.318;21.898;2023-02-01T07:35:28;5.4;100.0
21121;DHT22;12519;43.318;21.898;2023-02-01T07:40:06;5.4;100.0
21121;DHT22;12519;43.318;21.898;2023-02-01T07:44:46;5.4;100.0
21121;DHT22;12519;43.318;21.898;2023-02-01T07:49:23;5.4;100.0
21121;DHT22;12519;43.318;21.898;2023-02-01T07:53:59;6.4;98.0
21121;DHT22;12519;43.318;21.898;2023-02-01T07:58:35;6.4;98.0
21121;DHT22;12519;43.318;21.898;2023-02-01T08:03:12;7.4;97.0
21121;DHT22;12519;43.318;21.898;2023-02-01T08:07:48;7.4;97.0
21121;DHT22;12519;43.318;21.898;2023-02-01T08:12:25;7.1;97.0
21121;DHT22;12519;43.318;21.898;2023-02-01T08:17:02;7.1;97.0
21121;DHT22;12519;43.318;21.898;2023-02-01T08:21:38;6.8;96.0
21121;DHT22;12519;43.318;21.898;2023-02-01T08:26:17;6.8;96.0
21121;DHT22;12519;43.318;21.898;2023-02-01T08:31:04;6.6;97.0
21121;DHT22;12519;43.318;21.898;2023-02-01T08:35:49;6.6;97.0
21121;DHT22;12519;43.318;21.898;2023-02-01T08:40:25;6.4;98.0
21121;DHT22;12519;43.318;21.898;2023-02-01T08:45:02;6.4;98.0
21121;DHT22;12519;43.318;21.898;2023-02-01T08:49:41;6.4;98.0
21121;DHT22;12519;43.318;21.898;2023-02-01T08:54:17;6.4;97.0
21121;DHT22;12519;43.318;21.898;2023-02-01T08:58:53;6.4;97.0
21121;DHT22;12519;43.318;21.898;2023-02-01T09:03:29;6.5;96.0
21121;DHT22;12519;43.318;21.898;2023-02-01T09:08:05;6.5;96.0
21121;DHT22;12519;43.318;21.898;2023-02-01T09:12:43;6.6;96.0
21121;DHT22;12519;43.318;21.898;2023-02-01T09:17:19;6.6;96.0
21121;DHT22;12519;43.318;21.898;2023-02-01T09:21:55;6.8;96.0
21121;DHT22;12519;43.318;21.898;2023-02-01T09:26:32;6.8;96.0
21121;DHT22;12519;43.318;21.898;2023-02-01T09:31:08;6.8;95.0
21121;DHT22;12519;43.318;21.898;2023-02-01T09:35:44;6.8;95.0
21121;DHT22;12519;43.318;21.898;2023-02-01T09:40:21;6.8;95.0
21121;DHT22;12519;43.318;21.898;2023-02-01T09:45:07;6.9;94.0
21121;DHT22;12519;43.318;21.898;2023-02-01T09:50:12;6.9;94.0
21121;DHT22;12519;43.318;21.898;2023-02-01T09:55:10;7.0;94.0
21121;DHT22;12519;43.318;21.898;2023-02-01T10:00:07;7.0;94.0
21121;DHT22;12519;43.318;21.898;2023-02-01T10:05:05;7.0;94.0
21121;DHT22;12519;43.318;21.898;2023-02-01T10:09:57;7.0;94.0
21121;DHT22;12519;43.318;21.898;2023-02-01T10:14:57;7.1;93.0
21121;DHT22;12519;43.318;21.898;2023-02-01T10:20:12;7.1;93.0
21121;DHT22;12519;43.318;21.898;2023-02-01T10:25:23;7.2;92.0
21121;DHT22;12519;43.318;21.898;2023-02-01T10:30:21;7.2;92.0
21121;DHT22;12519;43.318;21.898;2023-02-01T10:35:17;7.5;92.0
21121;DHT22;12519;43.318;21.898;2023-02-01T10:40:16;7.5;92.0
21121;DHT22;12519;43.318;21.898;2023-02-01T10:45:02;7.8;91.0
21121;DHT22;12519;43.318;21.898;2023-02-01T10:49:55;7.8;91.0
21121;DHT22;12519;43.318;21.898;2023-02-01T10:55:40;8.0;90.0
21121;DHT22;12519;43.318;21.898;2023-02-01T11:00:26;8.0;90.0
21121;DHT22;12519;43.318;21.898;2023-02-01T11:05:22;8.2;90.0
21121;DHT22;12519;43.318;21.898;2023-02-01T11:09:59;8.2;90.0
21121;DHT22;12519;43.318;21.898;2023-02-01T11:14:38;8.4;89.0
21121;DHT22;12519;43.318;21.898;2023-02-01T11:19:16;8.4;89.0
21121;DHT22;12519;43.318;21.898;2023-02-01T11:23:54;8.6;88.0
21121;DHT22;12519;43.318;21.898;2023-02-01T11:28:46;8.6;88.0
21121;DHT22;12519;43.318;21.898;2023-02-01T11:33:45;8.8;87.0
21121;DHT22;12519;43.318;21.898;2023-02-01T11:38:36;8.8;87.0
21121;DHT22;12519;43.318;21.898;2023-02-01T11:43:16;8.9;86.0
21121;DHT22;12519;43.318;21.898;2023-02-01T11:48:08;8.9;86.0
21121;DHT22;12519;43.318;21.898;2023-02-01T11:53:03;9.0;85.0
21121;DHT22;12519;43.318;21.898;2023-02-01T11:58:53;9.0;85.0
21121;DHT22;12519;43.318;21.898;2023-02-01T12:04:48;9.0;83.0
21121;DHT22;12519;43.318;21.898;2023-02-01T12:10:15;9.0;83.0
21121;DHT22;12519;43.318;21.898;2023-02-01T12:15:29;9.2;80.0
21121;DHT22;12519;43.318;21.898;2023-02-01T12:20:57;9.4;77.0
21121;DHT22;12519;43.318;21.898;2023-02-01T12:26:20;9.4;77.0
21121;DHT22;12519;43.318;21.898;2023-02-01T12:31:43;9.5;76.0
21121;DHT22;12519;43.318;21.898;2023-02-01T12:37:11;9.5;76.0
21121;DHT22;12519;43.318;21.898;2023-02-01T12:42:33;9.6;75.0
21121;DHT22;12519;43.318;21.898;2023-02-01T12:47:40;9.6;75.0
21121;DHT22;12519;43.318;21.898;2023-02-01T12:52:35;10.0;77.0
21121;DHT22;12519;43.318;21.898;2023-02-01T12:57:27;10.0;77.0
21121;DHT22;12519;43.318;21.898;2023-02-01T13:02:19;10.4;79.0
21121;DHT22;12519;43.318;21.898;2023-02-01T13:07:21;10.4;79.0
21121;DHT22;12519;43.318;21.898;2023-02-01T13:12:12;10.6;76.0
21121;DHT22;12519;43.318;21.898;2023-02-01T13:17:06;10.6;76.0
21121;DHT22;12519;43.318;21.898;2023-02-01T13:21:55;10.7;74.0
21121;DHT22;12519;43.318;21.898;2023-02-01T13:26:41;10.7;74.0
21121;DHT22;12519;43.318;21.898;2023-02-01T13:31:30;10.6;74.0
21121;DHT22;12519;43.318;21.898;2023-02-01T13:36:52;10.6;74.0
21121;DHT22;12519;43.318;21.898;2023-02-01T13:42:17;10.4;74.0
21121;DHT22;12519;43.318;21.898;2023-02-01T13:47:15;10.4;74.0
21121;DHT22;12519;43.318;21.898;2023-02-01T13:52:25;10.5;74.0
21121;DHT22;12519;43.318;21.898;2023-02-01T13:57:35;10.5;74.0
21121;DHT22;12519;43.318;21.898;2023-02-01T14:03:06;10.6;74.0
21121;DHT22;12519;43.318;21.898;2023-02-01T14:08:10;10.6;74.0
21121;DHT22;12519;43.318;21.898;2023-02-01T14:13:13;10.6;74.0
21121;DHT22;12519;43.318;21.898;2023-02-01T14:18:49;10.6;74.0
21121;DHT22;12519;43.318;21.898;2023-02-01T14:23:40;10.5;74.0
21121;DHT22;12519;43.318;21.898;2023-02-01T14:28:30;10.5;74.0
21121;DHT22;12519;43.318;21.898;2023-02-01T14:33:21;10.4;74.0
21121;DHT22;12519;43.318;21.898;2023-02-01T14:38:03;10.4;74.0
21121;DHT22;12519;43.318;21.898;2023-02-01T14:42:44;10.3;74.0
21121;DHT22;12519;43.318;21.898;2023-02-01T14:47:30;10.3;74.0
21121;DHT22;12519;43.318;21.898;2023-02-01T14:52:13;10.2;75.0
21121;DHT22;12519;43.318;21.898;2023-02-01T14:56:57;10.2;75.0
21121;DHT22;12519;43.318;21.898;2023-02-01T15:01:38;10.0;75.0
21121;DHT22;12519;43.318;21.898;2023-02-01T15:06:37;10.0;75.0
21121;DHT22;12519;43.318;21.898;2023-02-01T15:11:21;10.0;75.0
21121;DHT22;12519;43.318;21.898;2023-02-01T15:16:00;10.0;75.0
21121;DHT22;12519;43.318;21.898;2023-02-01T15:20:56;10.0;75.0
21121;DHT22;12519;43.318;21.898;2023-02-01T15:25:39;9.9;76.0
21121;DHT22;12519;43.318;21.898;2023-02-01T15:30:18;9.9;76.0
21121;DHT22;12519;43.318;21.898;2023-02-01T15:35:00;9.8;76.0
21121;DHT22;12519;43.318;21.898;2023-02-01T15:40:03;9.8;76.0
21121;DHT22;12519;43.318;21.898;2023-02-01T15:44:58;9.7;76.0
21121;DHT22;12519;43.318;21.898;2023-02-01T15:49:39;9.7;76.0
21121;DHT22;12519;43.318;21.898;2023-02-01T15:54:32;9.6;77.0
21121;DHT22;12519;43.318;21.898;2023-02-01T15:59:35;9.6;77.0
21121;DHT22;12519;43.318;21.898;2023-02-01T16:04:22;9.5;77.0
21121;DHT22;12519;43.318;21.898;2023-02-01T16:09:11;9.5;77.0
21121;DHT22;12519;43.318;21.898;2023-02-01T16:13:54;9.5;78.0
21121;DHT22;12519;43.318;21.898;2023-02-01T16:18:31;9.5;78.0
21121;DHT22;12519;43.318;21.898;2023-02-01T16:23:08;9.5;79.0
21121;DHT22;12519;43.318;21.898;2023-02-01T16:27:46;9.5;79.0
21121;DHT22;12519;43.318;21.898;2023-02-01T16:32:22;9.4;79.0
21121;DHT22;12519;43.318;21.898;2023-02-01T16:36:59;9.4;79.0
21121;DHT22;12519;43.318;21.898;2023-02-01T16:41:36;9.3;80.0
21121;DHT22;12519;43.318;21.898;2023-02-01T16:46:14;9.3;80.0
21121;DHT22;12519;43.318;21.898;2023-02-01T16:50:57;9.3;80.0
21121;DHT22;12519;43.318;21.898;2023-02-01T16:55:39;9.2;80.0
21121;DHT22;12519;43.318;21.898;2023-02-01T17:00:16;9.2;80.0
21121;DHT22;12519;43.318;21.898;2023-02-01T17:04:55;9.1;80.0
21121;DHT22;12519;43.318;21.898;2023-02-01T17:09:31;9.1;80.0
21121;DHT22;12519;43.318;21.898;2023-02-01T17:14:18;9.0;80.0
21121;DHT22;12519;43.318;21.898;2023-02-01T17:18:58;9.0;80.0
21121;DHT22;12519;43.318;21.898;2023-02-01T17:23:51;9.0;80.0
21121;DHT22;12519;43.318;21.898;2023-02-01T17:28:30;9.0;80.0
21121;DHT22;12519;43.318;21.898;2023-02-01T17:38:07;8.9;81.0
21121;DHT22;12519;43.318;21.898;2023-02-01T17:42:47;8.8;81.0
21121;DHT22;12519;43.318;21.898;2023-02-01T17:47:24;8.8;81.0
21121;DHT22;12519;43.318;21.898;2023-02-01T17:52:01;8.7;82.0
21121;DHT22;12519;43.318;21.898;2023-02-01T17:56:38;8.7;82.0
21121;DHT22;12519;43.318;21.898;2023-02-01T18:01:18;8.7;82.0
21121;DHT22;12519;43.318;21.898;2023-02-01T18:05:59;8.6;83.0
21121;DHT22;12519;43.318;21.898;2023-02-01T18:10:35;8.6;83.0
21121;DHT22;12519;43.318;21.898;2023-02-01T18:15:14;8.6;83.0
21121;DHT22;12519;43.318;21.898;2023-02-01T18:19:59;8.6;83.0
21121;DHT22;12519;43.318;21.898;2023-02-01T18:24:35;8.5;84.0
21121;DHT22;12519;43.318;21.898;2023-02-01T18:29:11;8.5;84.0
21121;DHT22;12519;43.318;21.898;2023-02-01T18:33:47;8.4;83.0
21121;DHT22;12519;43.318;21.898;2023-02-01T18:38:25;8.4;83.0
21121;DHT22;12519;43.318;21.898;2023-02-01T18:43:02;8.4;83.0
21121;DHT22;12519;43.318;21.898;2023-02-01T18:47:38;8.4;83.0
21121;DHT22;12519;43.318;21.898;2023-02-01T18:52:15;8.3;83.0
21121;DHT22;12519;43.318;21.898;2023-02-01T18:56:51;8.3;83.0
21121;DHT22;12519;43.318;21.898;2023-02-01T19:01:27;8.3;83.0
21121;DHT22;12519;43.318;21.898;2023-02-01T19:06:03;8.2;84.0
21121;DHT22;12519;43.318;21.898;2023-02-01T19:10:41;8.2;84.0
21121;DHT22;12519;43.318;21.898;2023-02-01T19:15:18;8.0;86.0
21121;DHT22;12519;43.318;21.898;2023-02-01T19:19:54;8.0;86.0
21121;DHT22;12519;43.318;21.898;2023-02-01T19:24:31;7.8;88.0
21121;DHT22;12519;43.318;21.898;2023-02-01T19:29:07;7.8;88.0
21121;DHT22;12519;43.318;21.898;2023-02-01T19:33:44;7.6;89.0
21121;DHT22;12519;43.318;21.898;2023-02-01T19:38:20;7.6;89.0
21121;DHT22;12519;43.318;21.898;2023-02-01T19:42:56;7.4;89.0
21121;DHT22;12519;43.318;21.898;2023-02-01T19:47:32;7.4;89.0
21121;DHT22;12519;43.318;21.898;2023-02-01T19:52:10;7.4;89.0
21121;DHT22;12519;43.318;21.898;2023-02-01T19:56:47;7.4;89.0
21121;DHT22;12519;43.318;21.898;2023-02-01T20:01:24;7.4;89.0
21121;DHT22;12519;43.318;21.898;2023-02-01T20:06:01;7.4;89.0
21121;DHT22;12519;43.318;21.898;2023-02-01T20:10:41;7.4;89.0
21121;DHT22;12519;43.318;21.898;2023-02-01T20:15:18;7.3;89.0
21121;DHT22;12519;43.318;21.898;2023-02-01T20:19:55;7.3;89.0
21121;DHT22;12519;43.318;21.898;2023-02-01T20:24:31;7.2;88.0
21121;DHT22;12519;43.318;21.898;2023-02-01T20:29:07;7.2;88.0
21121;DHT22;12519;43.318;21.898;2023-02-01T20:33:45;7.2;89.0
21121;DHT22;12519;43.318;21.898;2023-02-01T20:38:21;7.2;89.0
21121;DHT22;12519;43.318;21.898;2023-02-01T20:42:58;7.1;89.0
21121;DHT22;12519;43.318;21.898;2023-02-01T20:47:35;7.1;89.0
21121;DHT22;12519;43.318;21.898;2023-02-01T20:52:11;7.4;89.0
21121;DHT22;12519;43.318;21.898;2023-02-01T20:56:47;7.4;89.0
21121;DHT22;12519;43.318;21.898;2023-02-01T21:01:23;7.4;89.0
21121;DHT22;12519;43.318;21.898;2023-02-01T21:06:00;7.6;88.0
21121;DHT22;12519;43.318;21.898;2023-02-01T21:10:43;7.6;88.0
21121;DHT22;12519;43.318;21.898;2023-02-01T21:15:32;7.5;89.0
21121;DHT22;12519;43.318;21.898;2023-02-01T21:20:11;7.5;89.0
21121;DHT22;12519;43.318;21.898;2023-02-01T21:24:48;7.4;90.0
21121;DHT22;12519;43.318;21.898;2023-02-01T21:29:24;7.4;90.0
21121;DHT22;12519;43.318;21.898;2023-02-01T21:34:00;7.5;91.0
21121;DHT22;12519;43.318;21.898;2023-02-01T21:38:37;7.5;91.0
21121;DHT22;12519;43.318;21.898;2023-02-01T21:43:13;7.6;93.0
21121;DHT22;12519;43.318;21.898;2023-02-01T21:47:49;7.6;93.0
21121;DHT22;12519;43.318;21.898;2023-02-01T21:52:26;7.8;93.0
21121;DHT22;12519;43.318;21.898;2023-02-01T21:57:02;7.8;93.0
21121;DHT22;12519;43.318;21.898;2023-02-01T22:01:40;7.8;93.0
21121;DHT22;12519;43.318;21.898;2023-02-01T22:06:22;8.0;93.0
21121;DHT22;12519;43.318;21.898;2023-02-01T22:11:02;8.0;93.0
21121;DHT22;12519;43.318;21.898;2023-02-01T22:15:40;7.6;92.0
21121;DHT22;12519;43.318;21.898;2023-02-01T22:20:16;7.6;92.0
21121;DHT22;12519;43.318;21.898;2023-02-01T22:24:53;7.3;92.0
21121;DHT22;12519;43.318;21.898;2023-02-01T22:29:30;7.3;92.0
21121;DHT22;12519;43.318;21.898;2023-02-01T22:34:08;7.4;91.0
21121;DHT22;12519;43.318;21.898;2023-02-01T22:38:47;7.4;91.0
21121;DHT22;12519;43.318;21.898;2023-02-01T22:43:24;7.5;90.0
21121;DHT22;12519;43.318;21.898;2023-02-01T22:48:02;7.5;90.0
21121;DHT22;12519;43.318;21.898;2023-02-01T22:52:39;8.1;91.0
21121;DHT22;12519;43.318;21.898;2023-02-01T22:57:15;8.1;91.0
21121;DHT22;12519;43.318;21.898;2023-02-01T23:01:51;8.1;91.0
21121;DHT22;12519;43.318;21.898;2023-02-01T23:06:29;8.7;93.0
21121;DHT22;12519;43.318;21.898;2023-02-01T23:11:09;8.7;93.0
21121;DHT22;12519;43.318;21.898;2023-02-01T23:15:46;8.4;92.0
21121;DHT22;12519;43.318;21.898;2023-02-01T23:20:23;8.4;92.0
21121;DHT22;12519;43.318;21.898;2023-02-01T23:24:59;8.0;91.0
21121;DHT22;12519;43.318;21.898;2023-02-01T23:29:35;8.0;91.0
21121;DHT22;12519;43.318;21.898;2023-02-01T23:34:12;7.8;92.0
21121;DHT22;12519;43.318;21.898;2023-02-01T23:38:48;7.8;92.0
21121;DHT22;12519;43.318;21.898;2023-02-01T23:43:27;7.5;92.0
21121;DHT22;12519;43.318;21.898;2023-02-01T23:48:06;7.5;92.0
21121;DHT22;12519;43.318;21.898;2023-02-01T23:52:42;7.4;92.0
21121;DHT22;12519;43.318;21.898;2023-02-01T23:57:19;7.4;92.0
